createdAt,value
2023-01-19T00:02:25.683Z,87.15
2023-01-19T00:05:08.179Z,86.83
2023-01-19T00:07:41.182Z,87.38
2023-01-19T00:10:13.406Z,87.52
2023-01-19T00:12:46.912Z,87.20
2023-01-19T00:18:16.595Z,86.84
2023-01-19T00:20:52.158Z,87.07
2023-01-19T00:23:23.443Z,86.82
2023-01-19T00:25:54.915Z,87.25
2023-01-19T00:28:25.850Z,87.47
2023-01-19T00:30:57.565Z,87.68
2023-01-19T00:33:27.967Z,87.72
2023-01-19T00:35:59.231Z,87.33
2023-01-19T00:38:30.653Z,87.25
2023-01-19T00:41:02.064Z,87.26
2023-01-19T00:43:35.305Z,87.56
2023-01-19T00:46:17.327Z,88.00
2023-01-19T00:48:48.673Z,88.25
2023-01-19T00:51:20.962Z,88.36
2023-01-19T00:53:51.949Z,88.52
2023-01-19T00:56:24.538Z,88.78
2023-01-19T00:58:58.444Z,88.63
2023-01-19T01:01:46.005Z,88.18
2023-01-19T01:04:16.918Z,87.95
2023-01-19T01:06:48.469Z,87.84
2023-01-19T01:09:20.317Z,87.73
2023-01-19T01:11:52.165Z,87.78
2023-01-19T01:14:24.899Z,87.64
2023-01-19T01:16:56.062Z,87.64
2023-01-19T01:19:26.821Z,87.60
2023-01-19T01:22:00.297Z,87.57
2023-01-19T01:24:31.513Z,87.64
2023-01-19T01:27:02.716Z,87.84
2023-01-19T01:29:48.255Z,87.76
2023-01-19T01:32:20.954Z,87.74
2023-01-19T01:34:53.408Z,88.00
2023-01-19T01:37:24.374Z,88.04
2023-01-19T01:39:56.018Z,87.98
2023-01-19T01:42:36.352Z,87.79
2023-01-19T01:45:25.958Z,87.84
2023-01-19T01:48:07.725Z,87.72
2023-01-19T01:51:05.537Z,87.63
2023-01-19T01:53:38.543Z,87.35
2023-01-19T01:56:17.830Z,87.77
2023-01-19T01:58:50.199Z,87.62
2023-01-19T02:01:39.697Z,87.66
2023-01-19T02:04:11.934Z,87.42
2023-01-19T02:07:03.683Z,87.58
2023-01-19T02:09:55.620Z,87.47
2023-01-19T02:12:48.250Z,87.33
2023-01-19T02:18:15.243Z,87.54
2023-01-19T02:21:21.230Z,87.57
2023-01-19T02:24:00.122Z,87.53
2023-01-19T02:26:43.678Z,87.51
2023-01-19T02:29:17.211Z,87.76
2023-01-19T02:31:49.837Z,88.00
2023-01-19T02:34:23.573Z,87.75
2023-01-19T02:37:07.808Z,87.59
2023-01-19T02:39:50.014Z,87.72
2023-01-19T02:42:35.575Z,87.66
2023-01-19T02:45:08.928Z,87.94
2023-01-19T02:47:47.870Z,88.27
2023-01-19T02:50:45.787Z,88.36
2023-01-19T02:53:35.317Z,88.42
2023-01-19T02:56:31.004Z,88.19
2023-01-19T02:59:19.397Z,88.58
2023-01-19T03:01:56.717Z,88.50
2023-01-19T03:05:08.407Z,88.30
2023-01-19T03:08:00.412Z,88.47
2023-01-19T03:10:51.566Z,88.40
2023-01-19T03:13:49.752Z,88.51
2023-01-19T03:16:43.068Z,88.65
2023-01-19T03:19:41.319Z,88.67
2023-01-19T03:22:19.542Z,88.57
2023-01-19T03:24:55.110Z,88.54
2023-01-19T03:27:35.095Z,88.67
2023-01-19T03:30:13.054Z,88.65
2023-01-19T03:33:00.595Z,88.57
2023-01-19T03:35:35.967Z,88.54
2023-01-19T03:38:12.918Z,88.81
2023-01-19T03:40:45.352Z,88.71
2023-01-19T03:43:21.174Z,88.94
2023-01-19T03:45:55.583Z,89.17
2023-01-19T03:48:28.131Z,89.18
2023-01-19T03:51:00.247Z,89.32
2023-01-19T03:53:32.954Z,89.06
2023-01-19T03:56:05.779Z,88.89
2023-01-19T03:58:37.155Z,88.90
2023-01-19T04:01:08.219Z,88.53
2023-01-19T04:03:38.708Z,88.40
2023-01-19T04:06:10.578Z,88.06
2023-01-19T04:08:43.086Z,88.50
2023-01-19T04:11:19.929Z,89.00
2023-01-19T04:13:51.185Z,89.34
2023-01-19T04:16:23.707Z,89.30
2023-01-19T04:18:55.583Z,89.21
2023-01-19T04:21:28.406Z,89.22
2023-01-19T04:23:59.470Z,89.03
2023-01-19T04:26:32.441Z,89.27
2023-01-19T04:29:04.490Z,89.19
2023-01-19T04:31:37.723Z,88.71
2023-01-19T04:34:11.175Z,88.64
2023-01-19T04:36:42.509Z,88.36
2023-01-19T04:39:14.072Z,88.43
2023-01-19T04:41:45.623Z,88.68
2023-01-19T04:44:16.831Z,88.63
2023-01-19T04:46:47.947Z,88.38
2023-01-19T04:49:20.454Z,88.64
2023-01-19T04:51:53.918Z,88.47
2023-01-19T04:54:25.707Z,88.85
2023-01-19T04:56:56.598Z,88.71
2023-01-19T04:59:30.958Z,88.92
2023-01-19T05:02:05.112Z,88.90
2023-01-19T05:04:40.580Z,88.92
2023-01-19T05:07:13.610Z,88.71
2023-01-19T05:09:44.904Z,88.72
2023-01-19T05:12:15.798Z,88.61
2023-01-19T05:14:50.966Z,88.74
2023-01-19T05:17:21.922Z,88.54
2023-01-19T05:19:55.778Z,88.33
2023-01-19T05:22:27.349Z,88.02
2023-01-19T05:24:59.154Z,88.26
2023-01-19T05:27:30.919Z,88.46
2023-01-19T05:30:07.137Z,88.38
2023-01-19T05:32:38.301Z,88.58
2023-01-19T05:35:12.411Z,88.68
2023-01-19T05:37:42.597Z,88.68
2023-01-19T05:40:14.912Z,88.60
2023-01-19T05:42:48.375Z,88.83
2023-01-19T05:45:25.851Z,87.96
2023-01-19T05:47:58.108Z,88.34
2023-01-19T05:50:31.747Z,88.41
2023-01-19T05:53:05.252Z,89.20
2023-01-19T05:55:39.839Z,88.71
2023-01-19T05:58:11.258Z,88.62
2023-01-19T06:00:43.661Z,88.78
2023-01-19T06:03:14.891Z,88.70
2023-01-19T06:05:48.181Z,88.91
2023-01-19T06:08:21.277Z,89.02
2023-01-19T06:10:52.231Z,89.25
2023-01-19T06:13:23.098Z,89.39
2023-01-19T06:16:06.119Z,89.33
2023-01-19T06:18:40.315Z,89.19
2023-01-19T06:21:14.500Z,89.35
2023-01-19T06:23:48.101Z,89.40
2023-01-19T06:26:22.343Z,89.30
2023-01-19T06:28:54.778Z,89.31
2023-01-19T06:31:29.275Z,89.18
2023-01-19T06:34:00.956Z,88.76
2023-01-19T06:36:31.935Z,88.73
2023-01-19T06:39:08.762Z,88.50
2023-01-19T06:41:43.766Z,88.36
2023-01-19T06:44:16.719Z,88.39
2023-01-19T06:46:48.415Z,88.71
2023-01-19T06:49:19.318Z,88.81
2023-01-19T06:51:50.313Z,88.80
2023-01-19T06:54:21.825Z,88.84
2023-01-19T06:56:54.953Z,88.90
2023-01-19T06:59:27.984Z,89.52
2023-01-19T07:01:59.139Z,89.59
2023-01-19T07:04:31.161Z,89.54
2023-01-19T07:07:02.588Z,89.57
2023-01-19T07:09:36.673Z,89.66
2023-01-19T07:12:12.575Z,89.49
2023-01-19T07:14:44.472Z,89.63
2023-01-19T07:17:15.493Z,89.60
2023-01-19T07:19:46.912Z,89.58
2023-01-19T07:22:21.052Z,89.40
2023-01-19T07:24:55.867Z,89.10
2023-01-19T07:27:31.168Z,88.66
2023-01-19T07:30:06.843Z,88.82
2023-01-19T07:32:37.815Z,88.66
2023-01-19T07:35:09.338Z,89.21
2023-01-19T07:37:40.508Z,89.51
2023-01-19T07:40:11.905Z,89.57
2023-01-19T07:42:46.006Z,89.45
2023-01-19T07:45:20.380Z,89.20
2023-01-19T07:47:52.927Z,88.78
2023-01-19T07:50:26.298Z,88.31
2023-01-19T07:53:00.587Z,88.62
2023-01-19T07:55:31.688Z,88.58
2023-01-19T07:58:02.088Z,89.12
2023-01-19T08:00:35.171Z,89.22
2023-01-19T08:03:11.567Z,89.28
2023-01-19T08:05:41.951Z,89.66
2023-01-19T08:08:19.918Z,89.28
2023-01-19T08:10:54.776Z,89.39
2023-01-19T08:13:25.042Z,89.54
2023-01-19T08:15:58.489Z,89.85
2023-01-19T08:18:32.138Z,90.03
2023-01-19T08:21:03.027Z,90.18
2023-01-19T08:23:34.923Z,90.23
2023-01-19T08:26:31.118Z,90.09
2023-01-19T08:29:05.525Z,90.05
2023-01-19T08:31:39.240Z,90.30
2023-01-19T08:34:11.168Z,90.16
2023-01-19T08:36:43.225Z,90.49
2023-01-19T08:39:14.910Z,90.69
2023-01-19T08:41:48.678Z,90.72
2023-01-19T08:44:20.513Z,90.86
2023-01-19T08:46:52.316Z,91.16
2023-01-19T08:49:23.859Z,91.14
2023-01-19T08:51:55.593Z,90.96
2023-01-19T08:54:28.192Z,90.73
2023-01-19T08:56:59.164Z,90.83
2023-01-19T08:59:32.346Z,91.06
2023-01-19T09:02:07.152Z,90.86
2023-01-19T09:04:40.496Z,90.31
2023-01-19T09:07:12.081Z,89.98
2023-01-19T09:09:45.779Z,89.83
2023-01-19T09:12:17.402Z,88.73
2023-01-19T09:14:53.079Z,87.75
2023-01-19T09:17:23.972Z,87.84
2023-01-19T09:19:56.718Z,87.11
2023-01-19T09:22:29.441Z,87.73
2023-01-19T09:25:00.905Z,87.23
2023-01-19T09:27:32.673Z,87.97
2023-01-19T09:30:04.275Z,88.31
2023-01-19T09:32:35.718Z,88.58
2023-01-19T09:35:07.414Z,88.61
2023-01-19T09:37:39.864Z,88.64
2023-01-19T09:40:13.163Z,88.37
2023-01-19T09:43:30.620Z,88.25
2023-01-19T09:46:05.731Z,87.99
2023-01-19T09:49:01.948Z,87.88
2023-01-19T09:51:45.739Z,87.39
2023-01-19T09:54:31.649Z,87.08
2023-01-19T09:57:02.918Z,86.51
2023-01-19T09:59:37.981Z,86.25
2023-01-19T10:02:34.407Z,86.10
2023-01-19T10:05:33.377Z,85.82
2023-01-19T10:08:16.689Z,85.05
2023-01-19T10:10:57.720Z,84.48
2023-01-19T10:13:49.624Z,84.24
2023-01-19T10:17:10.930Z,84.26
2023-01-19T10:19:55.582Z,84.04
2023-01-19T10:22:30.635Z,84.23
2023-01-19T10:25:11.312Z,83.93
2023-01-19T10:27:46.748Z,83.89
2023-01-19T10:30:36.160Z,83.76
2023-01-19T10:33:07.436Z,83.48
2023-01-19T10:35:42.101Z,83.49
2023-01-19T10:38:17.723Z,83.35
2023-01-19T10:41:06.191Z,83.69
2023-01-19T10:43:38.046Z,84.20
2023-01-19T10:46:19.337Z,84.46
2023-01-19T10:48:57.733Z,84.26
2023-01-19T10:51:31.406Z,84.18
2023-01-19T10:54:06.359Z,83.82
2023-01-19T10:56:40.078Z,84.26
2023-01-19T10:59:35.901Z,84.08
2023-01-19T11:02:25.616Z,85.21
2023-01-19T11:04:58.661Z,86.10
2023-01-19T11:07:29.558Z,86.75
2023-01-19T11:10:19.968Z,86.99
2023-01-19T11:13:18.588Z,87.32
2023-01-19T11:15:53.956Z,87.52
2023-01-19T11:18:34.086Z,86.88
2023-01-19T11:21:13.625Z,87.01
2023-01-19T11:23:49.623Z,86.65
2023-01-19T11:26:47.479Z,86.78
2023-01-19T11:29:27.344Z,86.62
2023-01-19T11:32:15.211Z,86.11
2023-01-19T11:34:46.821Z,85.98
2023-01-19T11:37:24.177Z,86.39
2023-01-19T11:40:01.772Z,85.74
2023-01-19T11:42:35.429Z,84.81
2023-01-19T11:45:19.731Z,85.32
2023-01-19T11:47:51.732Z,85.30
2023-01-19T11:50:30.569Z,84.66
2023-01-19T11:53:09.862Z,84.10
2023-01-19T11:56:14.801Z,85.80
2023-01-19T11:58:51.719Z,84.77
2023-01-19T12:01:37.117Z,86.54
2023-01-19T12:04:42.552Z,84.77
2023-01-19T12:07:18.657Z,82.57
2023-01-19T12:10:01.468Z,83.50
2023-01-19T12:12:40.964Z,83.87
2023-01-19T12:15:33.651Z,84.33
2023-01-19T12:18:09.807Z,83.40
2023-01-19T12:20:47.357Z,82.41
2023-01-19T12:23:24.953Z,80.79
2023-01-19T12:26:07.958Z,80.60
2023-01-19T12:28:50.409Z,81.92
2023-01-19T12:31:24.888Z,82.45
2023-01-19T12:33:56.163Z,83.75
2023-01-19T12:36:41.184Z,85.80
2023-01-19T12:39:31.035Z,85.16
2023-01-19T12:42:21.266Z,85.41
2023-01-19T12:45:16.835Z,86.51
2023-01-19T12:48:01.573Z,84.94
2023-01-19T12:50:40.829Z,84.02
2023-01-19T12:53:26.128Z,84.02
2023-01-19T12:56:10.814Z,84.13
2023-01-19T12:58:41.692Z,83.61
2023-01-19T13:01:20.990Z,82.71
2023-01-19T13:04:29.398Z,81.57
2023-01-19T13:07:12.987Z,81.06
2023-01-19T13:09:45.411Z,79.71
2023-01-19T13:12:30.861Z,80.08
2023-01-19T13:15:32.934Z,81.06
2023-01-19T13:18:06.740Z,78.61
2023-01-19T13:20:56.154Z,80.18
2023-01-19T13:23:53.116Z,78.48
2023-01-19T13:26:40.115Z,76.28
2023-01-19T13:29:32.585Z,75.30
2023-01-19T13:32:16.033Z,73.98
2023-01-19T13:35:12.104Z,76.88
2023-01-19T13:37:48.557Z,76.47
2023-01-19T13:40:37.697Z,74.80
2023-01-19T13:43:30.210Z,71.74
2023-01-19T13:46:02.640Z,69.83
2023-01-19T13:48:37.948Z,69.97
2023-01-19T13:51:20.100Z,69.81
2023-01-19T13:54:01.885Z,70.74
2023-01-19T13:56:32.793Z,71.78
2023-01-19T13:59:12.922Z,73.59
2023-01-19T14:01:47.402Z,74.70
2023-01-19T14:04:36.587Z,75.24
2023-01-19T14:07:16.750Z,73.63
2023-01-19T14:09:49.760Z,72.86
2023-01-19T14:12:21.185Z,74.06
2023-01-19T14:14:53.063Z,73.51
2023-01-19T14:17:31.412Z,74.13
2023-01-19T14:20:07.787Z,73.99
2023-01-19T14:22:46.036Z,75.55
2023-01-19T14:25:37.692Z,75.82
2023-01-19T14:28:30.720Z,76.84
2023-01-19T14:31:31.393Z,77.12
2023-01-19T14:34:04.296Z,76.28
2023-01-19T14:36:41.860Z,75.64
2023-01-19T14:39:31.904Z,74.48
2023-01-19T14:42:07.302Z,73.09
2023-01-19T14:44:43.234Z,72.74
2023-01-19T14:47:42.703Z,72.86
2023-01-19T14:50:38.475Z,71.76
2023-01-19T14:53:32.129Z,69.81
2023-01-19T14:56:08.534Z,70.30
2023-01-19T14:58:39.533Z,69.77
2023-01-19T15:01:14.215Z,68.08
2023-01-19T15:03:50.027Z,66.88
2023-01-19T15:06:24.575Z,69.44
2023-01-19T15:08:55.691Z,70.42
2023-01-19T15:11:38.908Z,72.59
2023-01-19T15:14:19.421Z,72.39
2023-01-19T15:16:51.719Z,72.09
2023-01-19T15:19:24.240Z,72.43
2023-01-19T15:21:56.021Z,72.60
2023-01-19T15:24:26.877Z,72.50
2023-01-19T15:27:04.148Z,74.05
2023-01-19T15:29:38.204Z,75.63
2023-01-19T15:32:18.526Z,75.99
2023-01-19T15:34:49.491Z,77.10
2023-01-19T15:37:23.417Z,76.78
2023-01-19T15:39:55.950Z,77.09
2023-01-19T15:42:31.193Z,76.53
2023-01-19T15:45:03.691Z,76.94
2023-01-19T15:47:42.786Z,76.63
2023-01-19T15:50:16.403Z,77.70
2023-01-19T15:52:49.895Z,77.29
2023-01-19T15:55:24.519Z,78.43
2023-01-19T15:58:07.629Z,79.22
2023-01-19T16:00:46.953Z,79.85
2023-01-19T16:03:23.526Z,79.12
2023-01-19T16:06:05.797Z,78.96
2023-01-19T16:08:37.379Z,79.75
2023-01-19T16:11:10.294Z,80.44
2023-01-19T16:13:49.578Z,79.63
2023-01-19T16:16:25.648Z,78.56
2023-01-19T16:18:58.045Z,77.92
2023-01-19T16:21:30.486Z,77.82
2023-01-19T16:24:04.038Z,76.91
2023-01-19T16:26:37.060Z,75.57
2023-01-19T16:29:13.685Z,74.91
2023-01-19T16:31:45.068Z,74.34
2023-01-19T16:34:17.915Z,75.94
2023-01-19T16:36:48.474Z,76.14
2023-01-19T16:39:19.352Z,75.65
2023-01-19T16:41:49.601Z,75.30
2023-01-19T16:44:19.949Z,74.93
2023-01-19T16:46:51.332Z,74.33
2023-01-19T16:49:24.291Z,74.22
2023-01-19T16:52:00.505Z,74.58
2023-01-19T16:54:32.166Z,74.30
2023-01-19T16:57:02.398Z,74.05
2023-01-19T16:59:32.668Z,73.60
2023-01-19T17:02:02.648Z,74.96
2023-01-19T17:04:35.030Z,75.64
2023-01-19T17:07:07.110Z,76.35
2023-01-19T17:09:37.329Z,76.50
2023-01-19T17:12:10.544Z,76.39
2023-01-19T17:14:41.261Z,76.70
2023-01-19T17:17:11.671Z,77.40
2023-01-19T17:19:42.994Z,77.81
2023-01-19T17:22:14.327Z,77.92
2023-01-19T17:24:45.079Z,77.66
2023-01-19T17:27:15.089Z,77.48
2023-01-19T17:29:45.116Z,77.08
2023-01-19T17:32:15.359Z,75.84
2023-01-19T17:34:48.064Z,75.38
2023-01-19T17:37:18.272Z,74.67
2023-01-19T17:39:48.286Z,74.40
2023-01-19T17:42:18.592Z,73.23
2023-01-19T17:44:48.656Z,73.10
2023-01-19T17:47:18.844Z,72.95
2023-01-19T17:49:48.969Z,73.63
2023-01-19T17:52:19.152Z,74.01
2023-01-19T17:54:48.897Z,75.12
2023-01-19T17:57:18.963Z,76.41
2023-01-19T17:59:49.263Z,76.53
2023-01-19T18:02:19.622Z,75.92
2023-01-19T18:04:49.666Z,77.20
2023-01-19T18:07:20.592Z,77.33
2023-01-19T18:09:50.708Z,78.87
2023-01-19T18:12:22.272Z,79.24
2023-01-19T18:14:52.859Z,79.20
2023-01-19T18:17:22.890Z,79.25
2023-01-19T18:19:53.747Z,78.89
2023-01-19T18:22:24.546Z,77.77
2023-01-19T18:24:55.815Z,77.37
2023-01-19T18:27:27.930Z,77.51
2023-01-19T18:29:59.240Z,78.19
2023-01-19T18:32:30.982Z,77.43
2023-01-19T18:35:01.286Z,77.27
2023-01-19T18:37:31.389Z,77.27
2023-01-19T18:40:05.645Z,78.38
2023-01-19T18:42:36.694Z,77.78
2023-01-19T18:45:08.545Z,77.86
2023-01-19T18:47:40.201Z,78.32
2023-01-19T18:50:11.220Z,77.71
2023-01-19T18:52:43.957Z,76.99
2023-01-19T18:55:22.242Z,76.77
2023-01-19T18:57:52.992Z,76.05
2023-01-19T19:00:23.565Z,75.68
2023-01-19T19:02:54.699Z,75.77
2023-01-19T19:05:25.288Z,76.02
2023-01-19T19:07:55.345Z,75.40
2023-01-19T19:10:25.587Z,75.07
2023-01-19T19:13:01.576Z,75.52
2023-01-19T19:15:33.687Z,76.19
2023-01-19T19:18:04.343Z,77.78
2023-01-19T19:20:34.346Z,78.68
2023-01-19T19:23:04.759Z,79.15
2023-01-19T19:25:36.018Z,80.52
2023-01-19T19:28:06.553Z,80.92
2023-01-19T19:30:39.121Z,80.55
2023-01-19T19:33:09.579Z,80.45
2023-01-19T19:35:39.646Z,80.63
2023-01-19T19:38:10.345Z,80.17
2023-01-19T19:40:40.438Z,79.86
2023-01-19T19:43:10.848Z,79.70
2023-01-19T19:45:42.279Z,80.29
2023-01-19T19:48:12.441Z,79.49
2023-01-19T19:50:42.657Z,79.33
2023-01-19T19:53:12.879Z,79.53
2023-01-19T19:55:42.902Z,79.63
2023-01-19T19:58:13.261Z,78.85
2023-01-19T20:00:47.246Z,78.53
2023-01-19T20:03:17.944Z,77.31
2023-01-19T20:05:48.826Z,76.86
2023-01-19T20:08:19.141Z,77.73
2023-01-19T20:10:48.886Z,78.39
2023-01-19T20:13:20.735Z,78.37
2023-01-19T20:15:50.971Z,78.53
2023-01-19T20:18:21.505Z,79.04
2023-01-19T20:20:51.394Z,78.28
2023-01-19T20:23:21.401Z,79.25
2023-01-19T20:25:51.661Z,80.25
2023-01-19T20:28:21.772Z,80.59
2023-01-19T20:30:51.991Z,80.97
2023-01-19T20:33:22.031Z,81.59
2023-01-19T20:35:53.402Z,82.47
2023-01-19T20:38:23.275Z,82.67
2023-01-19T20:40:54.851Z,82.36
2023-01-19T20:43:25.339Z,82.92
2023-01-19T20:45:55.377Z,83.05
2023-01-19T20:48:25.387Z,83.01
2023-01-19T20:51:03.259Z,83.23
2023-01-19T20:53:34.028Z,83.75
2023-01-19T20:56:13.620Z,83.13
2023-01-19T20:58:44.706Z,83.26
2023-01-19T21:01:24.654Z,83.22
2023-01-19T21:03:55.209Z,83.28
2023-01-19T21:06:26.385Z,83.57
2023-01-19T21:08:57.528Z,84.10
2023-01-19T21:11:28.434Z,83.35
2023-01-19T21:13:59.039Z,82.32
2023-01-19T21:16:31.254Z,82.61
2023-01-19T21:19:02.665Z,82.41
2023-01-19T21:21:32.851Z,82.45
2023-01-19T21:24:05.506Z,82.70
2023-01-19T21:26:36.511Z,82.27
2023-01-19T21:29:06.685Z,82.09
2023-01-19T21:31:37.046Z,82.42
2023-01-19T21:34:07.406Z,82.27
2023-01-19T21:36:37.526Z,82.20
2023-01-19T21:39:09.239Z,82.30
2023-01-19T21:41:41.285Z,82.55
2023-01-19T21:44:15.309Z,82.16
2023-01-19T21:46:46.054Z,82.62
2023-01-19T21:49:20.235Z,82.80
2023-01-19T21:51:54.709Z,83.02
2023-01-19T21:54:24.919Z,83.25
2023-01-19T21:56:55.565Z,83.56
2023-01-19T21:59:25.845Z,83.37
2023-01-19T22:01:55.872Z,83.23
2023-01-19T22:04:26.435Z,82.66
2023-01-19T22:06:56.509Z,82.29
2023-01-19T22:09:26.402Z,82.86
2023-01-19T22:11:56.665Z,83.12
2023-01-19T22:14:27.208Z,82.96
2023-01-19T22:16:57.288Z,83.50
2023-01-19T22:19:27.751Z,83.87
2023-01-19T22:21:58.514Z,84.16
2023-01-19T22:24:28.938Z,84.13
2023-01-19T22:26:59.475Z,84.18
2023-01-19T22:29:29.821Z,83.77
2023-01-19T22:31:59.933Z,84.31
2023-01-19T22:34:30.900Z,83.93
2023-01-19T22:37:04.655Z,84.20
2023-01-19T22:39:35.895Z,83.61
2023-01-19T22:42:06.082Z,84.42
2023-01-19T22:44:36.102Z,84.62
2023-01-19T22:47:06.842Z,84.74
2023-01-19T22:49:36.963Z,84.25
2023-01-19T22:52:10.288Z,84.76
2023-01-19T22:54:40.169Z,84.27
2023-01-19T22:57:13.223Z,84.04
2023-01-19T22:59:45.430Z,84.64
2023-01-19T23:02:16.193Z,84.61
2023-01-19T23:04:50.617Z,83.93
2023-01-19T23:07:21.816Z,83.96
2023-01-19T23:09:55.596Z,83.78
2023-01-19T23:12:27.261Z,84.83
2023-01-19T23:14:57.490Z,84.30
2023-01-19T23:17:27.817Z,84.32
2023-01-19T23:19:58.300Z,84.18
2023-01-19T23:22:29.088Z,84.91
2023-01-19T23:25:00.158Z,84.52
2023-01-19T23:27:30.340Z,85.48
2023-01-19T23:30:00.625Z,84.63
2023-01-19T23:32:31.765Z,84.35
2023-01-19T23:35:02.584Z,84.34
2023-01-19T23:37:34.455Z,84.25
2023-01-19T23:40:05.467Z,84.25
2023-01-19T23:42:35.722Z,84.74
2023-01-19T23:45:06.594Z,84.97
2023-01-19T23:47:38.021Z,85.17
2023-01-19T23:50:08.783Z,85.27
2023-01-19T23:52:38.501Z,84.69
2023-01-19T23:55:10.857Z,85.22
2023-01-19T23:57:41.339Z,85.08
